sensor_id;sensor_type;location;lat;lon;timestamp;temperature;humidity
10388;DHT22;5240;51.128;4.566;2023-07-22T00:02:18;16.60;99.90
10388;DHT22;5240;51.128;4.566;2023-07-22T00:04:46;16.60;99.90
10388;DHT22;5240;51.128;4.566;2023-07-22T00:07:13;16.60;99.90
10388;DHT22;5240;51.128;4.566;2023-07-22T00:09:41;16.60;99.90
10388;DHT22;5240;51.128;4.566;2023-07-22T00:12:10;16.60;99.90
10388;DHT22;5240;51.128;4.566;2023-07-22T00:14:39;16.60;99.90
10388;DHT22;5240;51.128;4.566;2023-07-22T00:17:07;16.60;99.90
10388;DHT22;5240;51.128;4.566;2023-07-22T00:19:34;16.60;99.90
10388;DHT22;5240;51.128;4.566;2023-07-22T00:22:01;16.60;99.90
10388;DHT22;5240;51.128;4.566;2023-07-22T00:24:28;16.60;99.90
10388;DHT22;5240;51.128;4.566;2023-07-22T00:26:55;16.70;99.90
10388;DHT22;5240;51.128;4.566;2023-07-22T00:29:24;16.70;99.90
10388;DHT22;5240;51.128;4.566;2023-07-22T00:31:51;16.70;99.90
10388;DHT22;5240;51.128;4.566;2023-07-22T00:34:18;16.80;99.90
10388;DHT22;5240;51.128;4.566;2023-07-22T00:36:46;16.80;99.90
10388;DHT22;5240;51.128;4.566;2023-07-22T00:39:13;16.80;99.90
10388;DHT22;5240;51.128;4.566;2023-07-22T00:41:41;16.80;99.90
10388;DHT22;5240;51.128;4.566;2023-07-22T00:44:09;16.80;99.90
10388;DHT22;5240;51.128;4.566;2023-07-22T00:46:39;16.80;99.90
10388;DHT22;5240;51.128;4.566;2023-07-22T00:49:07;16.70;99.90
10388;DHT22;5240;51.128;4.566;2023-07-22T00:51:34;16.70;99.90
10388;DHT22;5240;51.128;4.566;2023-07-22T00:54:01;16.70;99.90
10388;DHT22;5240;51.128;4.566;2023-07-22T00:56:31;16.70;99.90
10388;DHT22;5240;51.128;4.566;2023-07-22T00:58:59;16.80;99.90
10388;DHT22;5240;51.128;4.566;2023-07-22T01:01:27;16.80;99.90
10388;DHT22;5240;51.128;4.566;2023-07-22T01:03:55;16.80;99.90
10388;DHT22;5240;51.128;4.566;2023-07-22T01:06:23;16.80;99.90
10388;DHT22;5240;51.128;4.566;2023-07-22T01:08:51;16.80;99.90
10388;DHT22;5240;51.128;4.566;2023-07-22T01:11:18;16.80;99.90
10388;DHT22;5240;51.128;4.566;2023-07-22T01:13:45;16.80;99.90
10388;DHT22;5240;51.128;4.566;2023-07-22T01:16:12;16.70;99.90
10388;DHT22;5240;51.128;4.566;2023-07-22T01:18:39;16.70;99.90
10388;DHT22;5240;51.128;4.566;2023-07-22T01:21:08;16.70;99.90
10388;DHT22;5240;51.128;4.566;2023-07-22T01:23:38;16.70;99.90
10388;DHT22;5240;51.128;4.566;2023-07-22T01:26:06;16.70;99.90
10388;DHT22;5240;51.128;4.566;2023-07-22T01:28:35;16.60;99.90
10388;DHT22;5240;51.128;4.566;2023-07-22T01:31:02;16.60;99.90
10388;DHT22;5240;51.128;4.566;2023-07-22T01:33:30;16.60;99.90
10388;DHT22;5240;51.128;4.566;2023-07-22T01:35:58;16.60;99.90
10388;DHT22;5240;51.128;4.566;2023-07-22T01:38:25;16.60;99.90
10388;DHT22;5240;51.128;4.566;2023-07-22T01:40:53;16.50;99.90
10388;DHT22;5240;51.128;4.566;2023-07-22T01:43:20;16.50;99.90
10388;DHT22;5240;51.128;4.566;2023-07-22T01:45:47;16.50;99.90
10388;DHT22;5240;51.128;4.566;2023-07-22T01:48:14;16.50;99.90
10388;DHT22;5240;51.128;4.566;2023-07-22T01:50:41;16.40;99.90
10388;DHT22;5240;51.128;4.566;2023-07-22T01:53:08;16.40;99.90
10388;DHT22;5240;51.128;4.566;2023-07-22T01:55:35;16.30;99.90
10388;DHT22;5240;51.128;4.566;2023-07-22T01:58:04;16.40;99.90
10388;DHT22;5240;51.128;4.566;2023-07-22T02:00:31;16.40;99.90
10388;DHT22;5240;51.128;4.566;2023-07-22T02:02:58;16.40;99.90
10388;DHT22;5240;51.128;4.566;2023-07-22T02:05:25;16.40;99.90
10388;DHT22;5240;51.128;4.566;2023-07-22T02:07:54;16.40;99.90
10388;DHT22;5240;51.128;4.566;2023-07-22T02:10:21;16.40;99.90
10388;DHT22;5240;51.128;4.566;2023-07-22T02:12:48;16.30;99.90
10388;DHT22;5240;51.128;4.566;2023-07-22T02:15:16;16.30;99.90
10388;DHT22;5240;51.128;4.566;2023-07-22T02:17:43;16.20;99.90
10388;DHT22;5240;51.128;4.566;2023-07-22T02:20:11;16.20;99.90
10388;DHT22;5240;51.128;4.566;2023-07-22T02:22:38;16.20;99.90
10388;DHT22;5240;51.128;4.566;2023-07-22T02:25:06;16.20;99.90
10388;DHT22;5240;51.128;4.566;2023-07-22T02:27:36;16.20;99.90
10388;DHT22;5240;51.128;4.566;2023-07-22T02:30:05;16.20;99.90
10388;DHT22;5240;51.128;4.566;2023-07-22T02:32:37;16.20;99.90
10388;DHT22;5240;51.128;4.566;2023-07-22T02:35:05;16.10;99.90
10388;DHT22;5240;51.128;4.566;2023-07-22T02:37:33;16.10;99.90
10388;DHT22;5240;51.128;4.566;2023-07-22T02:40:00;16.00;99.90
10388;DHT22;5240;51.128;4.566;2023-07-22T02:42:33;16.00;99.90
10388;DHT22;5240;51.128;4.566;2023-07-22T02:45:01;16.00;99.90
10388;DHT22;5240;51.128;4.566;2023-07-22T02:47:28;15.90;99.90
10388;DHT22;5240;51.128;4.566;2023-07-22T02:49:56;15.90;99.90
10388;DHT22;5240;51.128;4.566;2023-07-22T02:52:23;15.80;99.90
10388;DHT22;5240;51.128;4.566;2023-07-22T02:55:07;15.80;99.90
10388;DHT22;5240;51.128;4.566;2023-07-22T02:57:36;15.70;99.90
10388;DHT22;5240;51.128;4.566;2023-07-22T03:00:05;15.70;99.90
10388;DHT22;5240;51.128;4.566;2023-07-22T03:02:34;15.60;99.90
10388;DHT22;5240;51.128;4.566;2023-07-22T03:05:04;15.60;99.90
10388;DHT22;5240;51.128;4.566;2023-07-22T03:07:33;15.50;99.90
10388;DHT22;5240;51.128;4.566;2023-07-22T03:10:00;15.50;99.90
10388;DHT22;5240;51.128;4.566;2023-07-22T03:12:27;15.50;99.90
10388;DHT22;5240;51.128;4.566;2023-07-22T03:14:54;15.50;99.90
10388;DHT22;5240;51.128;4.566;2023-07-22T03:17:21;15.40;99.90
10388;DHT22;5240;51.128;4.566;2023-07-22T03:19:48;15.40;99.90
10388;DHT22;5240;51.128;4.566;2023-07-22T03:22:17;15.30;99.90
10388;DHT22;5240;51.128;4.566;2023-07-22T03:24:45;15.20;99.90
10388;DHT22;5240;51.128;4.566;2023-07-22T03:27:12;15.20;99.90
10388;DHT22;5240;51.128;4.566;2023-07-22T03:29:41;15.20;99.90
10388;DHT22;5240;51.128;4.566;2023-07-22T03:32:08;15.20;99.90
10388;DHT22;5240;51.128;4.566;2023-07-22T03:34:35;15.20;99.90
10388;DHT22;5240;51.128;4.566;2023-07-22T03:37:02;15.10;99.90
10388;DHT22;5240;51.128;4.566;2023-07-22T03:39:31;15.20;99.90
10388;DHT22;5240;51.128;4.566;2023-07-22T03:41:58;15.20;99.90
10388;DHT22;5240;51.128;4.566;2023-07-22T03:44:25;15.10;99.90
10388;DHT22;5240;51.128;4.566;2023-07-22T03:46:54;15.10;99.90
10388;DHT22;5240;51.128;4.566;2023-07-22T03:49:21;15.00;99.90
10388;DHT22;5240;51.128;4.566;2023-07-22T03:51:48;14.90;99.90
10388;DHT22;5240;51.128;4.566;2023-07-22T03:54:15;14.90;99.90
10388;DHT22;5240;51.128;4.566;2023-07-22T03:56:43;14.80;99.90
10388;DHT22;5240;51.128;4.566;2023-07-22T03:59:10;14.80;99.90
10388;DHT22;5240;51.128;4.566;2023-07-22T04:01:37;14.80;99.90
10388;DHT22;5240;51.128;4.566;2023-07-22T04:04:04;14.80;99.90
10388;DHT22;5240;51.128;4.566;2023-07-22T04:06:31;14.70;99.90
10388;DHT22;5240;51.128;4.566;2023-07-22T04:08:58;14.70;99.90
10388;DHT22;5240;51.128;4.566;2023-07-22T04:11:26;14.70;99.90
10388;DHT22;5240;51.128;4.566;2023-07-22T04:13:54;14.70;99.90
10388;DHT22;5240;51.128;4.566;2023-07-22T04:16:21;14.70;99.90
10388;DHT22;5240;51.128;4.566;2023-07-22T04:18:48;14.70;99.90
10388;DHT22;5240;51.128;4.566;2023-07-22T04:21:15;14.70;99.90
10388;DHT22;5240;51.128;4.566;2023-07-22T04:23:42;14.70;99.90
10388;DHT22;5240;51.128;4.566;2023-07-22T04:26:10;14.80;99.90
10388;DHT22;5240;51.128;4.566;2023-07-22T04:28:37;14.80;99.90
10388;DHT22;5240;51.128;4.566;2023-07-22T04:31:05;14.80;99.90
10388;DHT22;5240;51.128;4.566;2023-07-22T04:33:32;14.80;99.90
10388;DHT22;5240;51.128;4.566;2023-07-22T04:35:59;14.90;99.90
10388;DHT22;5240;51.128;4.566;2023-07-22T04:38:26;15.00;99.90
10388;DHT22;5240;51.128;4.566;2023-07-22T04:40:54;15.00;99.90
10388;DHT22;5240;51.128;4.566;2023-07-22T04:43:21;15.10;99.90
10388;DHT22;5240;51.128;4.566;2023-07-22T04:45:48;15.10;99.90
10388;DHT22;5240;51.128;4.566;2023-07-22T04:48:20;15.10;99.90
10388;DHT22;5240;51.128;4.566;2023-07-22T04:50:48;15.10;99.90
10388;DHT22;5240;51.128;4.566;2023-07-22T04:53:16;15.10;99.90
10388;DHT22;5240;51.128;4.566;2023-07-22T04:55:43;15.20;99.90
10388;DHT22;5240;51.128;4.566;2023-07-22T04:58:10;15.20;99.90
10388;DHT22;5240;51.128;4.566;2023-07-22T05:00:38;15.10;99.90
10388;DHT22;5240;51.128;4.566;2023-07-22T05:03:05;15.10;99.90
10388;DHT22;5240;51.128;4.566;2023-07-22T05:05:33;15.20;99.90
10388;DHT22;5240;51.128;4.566;2023-07-22T05:08:01;15.20;99.90
10388;DHT22;5240;51.128;4.566;2023-07-22T05:10:28;15.20;99.90
10388;DHT22;5240;51.128;4.566;2023-07-22T05:12:55;15.20;99.90
10388;DHT22;5240;51.128;4.566;2023-07-22T05:15:23;15.20;99.90
10388;DHT22;5240;51.128;4.566;2023-07-22T05:17:51;15.20;99.90
10388;DHT22;5240;51.128;4.566;2023-07-22T05:20:18;15.20;99.90
10388;DHT22;5240;51.128;4.566;2023-07-22T05:22:47;15.20;99.90
10388;DHT22;5240;51.128;4.566;2023-07-22T05:25:14;15.20;99.90
10388;DHT22;5240;51.128;4.566;2023-07-22T05:27:42;15.20;99.90
10388;DHT22;5240;51.128;4.566;2023-07-22T05:30:09;15.20;99.90
10388;DHT22;5240;51.128;4.566;2023-07-22T05:32:36;15.30;99.90
10388;DHT22;5240;51.128;4.566;2023-07-22T05:35:03;15.30;99.90
10388;DHT22;5240;51.128;4.566;2023-07-22T05:37:31;15.40;99.90
10388;DHT22;5240;51.128;4.566;2023-07-22T05:39:59;15.40;99.90
10388;DHT22;5240;51.128;4.566;2023-07-22T05:42:26;15.40;99.90
10388;DHT22;5240;51.128;4.566;2023-07-22T05:44:54;15.50;99.90
10388;DHT22;5240;51.128;4.566;2023-07-22T05:47:21;15.50;99.90
10388;DHT22;5240;51.128;4.566;2023-07-22T05:49:49;15.40;99.90
10388;DHT22;5240;51.128;4.566;2023-07-22T05:52:16;15.40;99.90
10388;DHT22;5240;51.128;4.566;2023-07-22T05:54:43;15.40;99.90
10388;DHT22;5240;51.128;4.566;2023-07-22T05:57:12;15.50;99.90
10388;DHT22;5240;51.128;4.566;2023-07-22T05:59:39;15.50;99.90
10388;DHT22;5240;51.128;4.566;2023-07-22T06:02:07;15.60;99.90
10388;DHT22;5240;51.128;4.566;2023-07-22T06:04:34;15.70;99.90
10388;DHT22;5240;51.128;4.566;2023-07-22T06:07:01;15.80;99.90
10388;DHT22;5240;51.128;4.566;2023-07-22T06:09:29;16.00;99.90
10388;DHT22;5240;51.128;4.566;2023-07-22T06:11:56;16.00;99.90
10388;DHT22;5240;51.128;4.566;2023-07-22T06:14:24;16.10;99.90
10388;DHT22;5240;51.128;4.566;2023-07-22T06:16:51;16.10;99.90
10388;DHT22;5240;51.128;4.566;2023-07-22T06:19:18;16.10;99.90
10388;DHT22;5240;51.128;4.566;2023-07-22T06:21:45;16.10;99.90
10388;DHT22;5240;51.128;4.566;2023-07-22T06:24:13;16.10;99.90
10388;DHT22;5240;51.128;4.566;2023-07-22T06:26:39;16.10;99.90
10388;DHT22;5240;51.128;4.566;2023-07-22T06:29:06;16.10;99.90
10388;DHT22;5240;51.128;4.566;2023-07-22T06:31:35;16.10;99.90
10388;DHT22;5240;51.128;4.566;2023-07-22T06:34:02;16.00;99.90
10388;DHT22;5240;51.128;4.566;2023-07-22T06:36:29;16.00;99.90
10388;DHT22;5240;51.128;4.566;2023-07-22T06:38:56;16.10;99.90
10388;DHT22;5240;51.128;4.566;2023-07-22T06:41:23;16.10;99.90
10388;DHT22;5240;51.128;4.566;2023-07-22T06:43:51;16.20;99.90
10388;DHT22;5240;51.128;4.566;2023-07-22T06:46:18;16.20;99.90
10388;DHT22;5240;51.128;4.566;2023-07-22T06:48:48;16.30;99.90
10388;DHT22;5240;51.128;4.566;2023-07-22T06:51:14;16.40;99.90
10388;DHT22;5240;51.128;4.566;2023-07-22T06:53:41;16.40;99.90
10388;DHT22;5240;51.128;4.566;2023-07-22T06:56:08;16.40;99.90
10388;DHT22;5240;51.128;4.566;2023-07-22T06:58:35;16.50;99.90
10388;DHT22;5240;51.128;4.566;2023-07-22T07:01:02;16.60;99.90
10388;DHT22;5240;51.128;4.566;2023-07-22T07:03:29;16.70;99.90
10388;DHT22;5240;51.128;4.566;2023-07-22T07:05:58;16.80;99.90
10388;DHT22;5240;51.128;4.566;2023-07-22T07:08:25;16.90;99.90
10388;DHT22;5240;51.128;4.566;2023-07-22T07:10:52;16.80;99.90
10388;DHT22;5240;51.128;4.566;2023-07-22T07:13:19;16.90;99.90
10388;DHT22;5240;51.128;4.566;2023-07-22T07:15:47;16.90;99.90
10388;DHT22;5240;51.128;4.566;2023-07-22T07:18:15;17.00;99.90
10388;DHT22;5240;51.128;4.566;2023-07-22T07:20:43;17.10;99.90
10388;DHT22;5240;51.128;4.566;2023-07-22T07:23:13;17.00;99.90
10388;DHT22;5240;51.128;4.566;2023-07-22T07:25:41;17.00;99.90
10388;DHT22;5240;51.128;4.566;2023-07-22T07:28:08;17.00;99.90
10388;DHT22;5240;51.128;4.566;2023-07-22T07:30:37;17.10;99.90
10388;DHT22;5240;51.128;4.566;2023-07-22T07:33:04;17.20;99.90
10388;DHT22;5240;51.128;4.566;2023-07-22T07:35:31;17.50;99.90
10388;DHT22;5240;51.128;4.566;2023-07-22T07:37:58;17.70;99.90
10388;DHT22;5240;51.128;4.566;2023-07-22T07:40:26;17.90;99.90
10388;DHT22;5240;51.128;4.566;2023-07-22T07:42:53;18.10;99.90
10388;DHT22;5240;51.128;4.566;2023-07-22T07:45:21;18.20;99.90
10388;DHT22;5240;51.128;4.566;2023-07-22T07:47:48;18.20;99.90
10388;DHT22;5240;51.128;4.566;2023-07-22T07:50:15;18.10;99.90
10388;DHT22;5240;51.128;4.566;2023-07-22T07:52:42;18.10;99.90
10388;DHT22;5240;51.128;4.566;2023-07-22T07:55:09;18.10;99.90
10388;DHT22;5240;51.128;4.566;2023-07-22T07:57:37;18.30;99.90
10388;DHT22;5240;51.128;4.566;2023-07-22T08:00:05;18.30;99.90
10388;DHT22;5240;51.128;4.566;2023-07-22T08:02:34;18.30;99.90
10388;DHT22;5240;51.128;4.566;2023-07-22T08:05:01;18.20;99.90
10388;DHT22;5240;51.128;4.566;2023-07-22T08:07:28;18.10;99.90
10388;DHT22;5240;51.128;4.566;2023-07-22T08:09:55;17.90;99.90
10388;DHT22;5240;51.128;4.566;2023-07-22T08:12:23;17.90;99.90
10388;DHT22;5240;51.128;4.566;2023-07-22T08:14:53;18.00;99.90
10388;DHT22;5240;51.128;4.566;2023-07-22T08:17:20;18.00;99.90
10388;DHT22;5240;51.128;4.566;2023-07-22T08:19:47;18.20;99.90
10388;DHT22;5240;51.128;4.566;2023-07-22T08:22:14;18.40;99.90
10388;DHT22;5240;51.128;4.566;2023-07-22T08:24:42;18.70;99.90
10388;DHT22;5240;51.128;4.566;2023-07-22T08:27:09;18.90;99.90
10388;DHT22;5240;51.128;4.566;2023-07-22T08:29:36;19.00;99.90
10388;DHT22;5240;51.128;4.566;2023-07-22T08:32:05;18.90;99.90
10388;DHT22;5240;51.128;4.566;2023-07-22T08:34:32;19.00;99.90
10388;DHT22;5240;51.128;4.566;2023-07-22T08:36:59;19.00;99.90
10388;DHT22;5240;51.128;4.566;2023-07-22T08:39:26;18.90;99.90
10388;DHT22;5240;51.128;4.566;2023-07-22T08:41:54;18.80;99.90
10388;DHT22;5240;51.128;4.566;2023-07-22T08:44:25;18.80;99.90
10388;DHT22;5240;51.128;4.566;2023-07-22T08:46:59;18.80;99.90
10388;DHT22;5240;51.128;4.566;2023-07-22T08:49:29;18.90;99.90
10388;DHT22;5240;51.128;4.566;2023-07-22T08:51:56;18.90;99.90
10388;DHT22;5240;51.128;4.566;2023-07-22T08:54:24;19.00;99.90
10388;DHT22;5240;51.128;4.566;2023-07-22T08:56:51;19.20;99.90
10388;DHT22;5240;51.128;4.566;2023-07-22T08:59:18;19.40;99.90
10388;DHT22;5240;51.128;4.566;2023-07-22T09:01:46;19.40;99.90
10388;DHT22;5240;51.128;4.566;2023-07-22T09:04:14;19.70;99.90
10388;DHT22;5240;51.128;4.566;2023-07-22T09:06:43;19.90;99.90
10388;DHT22;5240;51.128;4.566;2023-07-22T09:09:11;19.90;99.90
10388;DHT22;5240;51.128;4.566;2023-07-22T09:11:38;20.00;99.90
10388;DHT22;5240;51.128;4.566;2023-07-22T09:14:05;20.00;99.90
10388;DHT22;5240;51.128;4.566;2023-07-22T09:16:33;20.30;99.90
10388;DHT22;5240;51.128;4.566;2023-07-22T09:19:03;20.50;99.90
10388;DHT22;5240;51.128;4.566;2023-07-22T09:21:31;20.90;99.90
10388;DHT22;5240;51.128;4.566;2023-07-22T09:24:20;21.30;99.90
10388;DHT22;5240;51.128;4.566;2023-07-22T09:26:47;21.60;99.90
10388;DHT22;5240;51.128;4.566;2023-07-22T09:29:14;22.00;99.90
10388;DHT22;5240;51.128;4.566;2023-07-22T09:31:49;22.10;99.90
10388;DHT22;5240;51.128;4.566;2023-07-22T09:34:16;22.00;99.90
10388;DHT22;5240;51.128;4.566;2023-07-22T09:36:53;22.10;99.90
10388;DHT22;5240;51.128;4.566;2023-07-22T09:39:23;21.90;99.90
10388;DHT22;5240;51.128;4.566;2023-07-22T09:41:50;22.10;99.90
10388;DHT22;5240;51.128;4.566;2023-07-22T09:44:18;22.10;99.90
10388;DHT22;5240;51.128;4.566;2023-07-22T09:46:47;22.10;99.90
10388;DHT22;5240;51.128;4.566;2023-07-22T09:49:16;22.20;99.90
10388;DHT22;5240;51.128;4.566;2023-07-22T09:51:44;22.30;99.90
10388;DHT22;5240;51.128;4.566;2023-07-22T09:54:11;22.60;99.90
10388;DHT22;5240;51.128;4.566;2023-07-22T09:57:10;22.80;99.90
10388;DHT22;5240;51.128;4.566;2023-07-22T09:59:39;22.60;99.90
10388;DHT22;5240;51.128;4.566;2023-07-22T10:02:07;22.60;99.90
10388;DHT22;5240;51.128;4.566;2023-07-22T10:04:39;22.70;99.90
10388;DHT22;5240;51.128;4.566;2023-07-22T10:07:07;22.90;99.90
10388;DHT22;5240;51.128;4.566;2023-07-22T10:09:37;23.00;99.90
10388;DHT22;5240;51.128;4.566;2023-07-22T10:12:07;22.70;99.90
10388;DHT22;5240;51.128;4.566;2023-07-22T10:14:35;22.40;99.90
10388;DHT22;5240;51.128;4.566;2023-07-22T10:17:02;22.30;99.90
10388;DHT22;5240;51.128;4.566;2023-07-22T10:19:30;22.10;99.90
10388;DHT22;5240;51.128;4.566;2023-07-22T10:21:59;22.20;99.90
10388;DHT22;5240;51.128;4.566;2023-07-22T10:24:26;22.60;99.90
10388;DHT22;5240;51.128;4.566;2023-07-22T10:26:54;22.80;99.90
10388;DHT22;5240;51.128;4.566;2023-07-22T10:29:23;23.10;99.90
10388;DHT22;5240;51.128;4.566;2023-07-22T10:31:53;23.40;99.90
10388;DHT22;5240;51.128;4.566;2023-07-22T10:34:21;23.50;99.90
10388;DHT22;5240;51.128;4.566;2023-07-22T10:36:48;23.30;99.90
10388;DHT22;5240;51.128;4.566;2023-07-22T10:39:24;23.00;99.90
10388;DHT22;5240;51.128;4.566;2023-07-22T10:42:00;22.60;99.90
10388;DHT22;5240;51.128;4.566;2023-07-22T10:44:32;22.60;99.90
10388;DHT22;5240;51.128;4.566;2023-07-22T10:47:00;23.00;99.90
10388;DHT22;5240;51.128;4.566;2023-07-22T10:49:43;23.70;99.90
10388;DHT22;5240;51.128;4.566;2023-07-22T10:52:11;23.80;99.90
10388;DHT22;5240;51.128;4.566;2023-07-22T10:54:39;23.90;99.90
10388;DHT22;5240;51.128;4.566;2023-07-22T10:57:23;24.30;99.90
10388;DHT22;5240;51.128;4.566;2023-07-22T10:59:55;25.50;99.90
10388;DHT22;5240;51.128;4.566;2023-07-22T11:02:24;26.00;99.90
10388;DHT22;5240;51.128;4.566;2023-07-22T11:04:51;26.30;99.90
10388;DHT22;5240;51.128;4.566;2023-07-22T11:07:30;26.60;99.90
10388;DHT22;5240;51.128;4.566;2023-07-22T11:09:58;26.60;99.90
10388;DHT22;5240;51.128;4.566;2023-07-22T11:12:38;25.90;99.90
10388;DHT22;5240;51.128;4.566;2023-07-22T11:15:07;25.60;99.90
10388;DHT22;5240;51.128;4.566;2023-07-22T11:17:34;25.40;99.90
10388;DHT22;5240;51.128;4.566;2023-07-22T11:20:04;25.30;99.90
10388;DHT22;5240;51.128;4.566;2023-07-22T11:22:31;25.80;99.90
10388;DHT22;5240;51.128;4.566;2023-07-22T11:24:59;26.40;99.90
10388;DHT22;5240;51.128;4.566;2023-07-22T11:27:26;27.00;99.90
10388;DHT22;5240;51.128;4.566;2023-07-22T11:29:53;27.60;99.90
10388;DHT22;5240;51.128;4.566;2023-07-22T11:32:25;28.20;99.90
10388;DHT22;5240;51.128;4.566;2023-07-22T11:34:52;28.00;99.90
10388;DHT22;5240;51.128;4.566;2023-07-22T11:37:19;27.40;99.90
10388;DHT22;5240;51.128;4.566;2023-07-22T11:39:46;27.50;99.90
10388;DHT22;5240;51.128;4.566;2023-07-22T11:42:13;28.10;99.90
10388;DHT22;5240;51.128;4.566;2023-07-22T11:44:41;28.30;99.90
10388;DHT22;5240;51.128;4.566;2023-07-22T11:47:08;28.70;99.90
10388;DHT22;5240;51.128;4.566;2023-07-22T11:49:38;28.60;99.90
10388;DHT22;5240;51.128;4.566;2023-07-22T11:52:06;27.90;99.90
10388;DHT22;5240;51.128;4.566;2023-07-22T11:54:35;27.10;99.90
10388;DHT22;5240;51.128;4.566;2023-07-22T11:57:13;26.70;99.90
10388;DHT22;5240;51.128;4.566;2023-07-22T11:59:43;26.90;99.90
10388;DHT22;5240;51.128;4.566;2023-07-22T12:02:13;26.80;99.90
10388;DHT22;5240;51.128;4.566;2023-07-22T12:04:41;26.40;99.90
10388;DHT22;5240;51.128;4.566;2023-07-22T12:07:21;25.90;99.90
10388;DHT22;5240;51.128;4.566;2023-07-22T12:09:48;26.90;99.90
10388;DHT22;5240;51.128;4.566;2023-07-22T12:12:15;27.20;99.90
10388;DHT22;5240;51.128;4.566;2023-07-22T12:14:42;26.70;99.90
10388;DHT22;5240;51.128;4.566;2023-07-22T12:17:09;26.50;99.90
10388;DHT22;5240;51.128;4.566;2023-07-22T12:19:36;26.20;99.90
10388;DHT22;5240;51.128;4.566;2023-07-22T12:22:05;25.70;99.90
10388;DHT22;5240;51.128;4.566;2023-07-22T12:24:32;26.00;99.90
10388;DHT22;5240;51.128;4.566;2023-07-22T12:26:59;25.90;99.90
10388;DHT22;5240;51.128;4.566;2023-07-22T12:29:26;25.60;99.90
10388;DHT22;5240;51.128;4.566;2023-07-22T12:31:53;24.90;99.90
10388;DHT22;5240;51.128;4.566;2023-07-22T12:34:20;25.10;99.90
10388;DHT22;5240;51.128;4.566;2023-07-22T12:36:47;25.20;99.90
10388;DHT22;5240;51.128;4.566;2023-07-22T12:39:15;26.80;99.90
10388;DHT22;5240;51.128;4.566;2023-07-22T12:41:43;28.00;99.90
10388;DHT22;5240;51.128;4.566;2023-07-22T12:44:09;28.50;99.90
10388;DHT22;5240;51.128;4.566;2023-07-22T12:46:36;29.40;99.90
10388;DHT22;5240;51.128;4.566;2023-07-22T12:49:03;29.60;99.90
10388;DHT22;5240;51.128;4.566;2023-07-22T12:51:31;29.00;99.90
10388;DHT22;5240;51.128;4.566;2023-07-22T12:53:58;28.50;99.90
10388;DHT22;5240;51.128;4.566;2023-07-22T12:56:26;28.00;99.90
10388;DHT22;5240;51.128;4.566;2023-07-22T12:58:53;27.40;99.90
10388;DHT22;5240;51.128;4.566;2023-07-22T13:01:20;27.20;99.90
10388;DHT22;5240;51.128;4.566;2023-07-22T13:03:47;27.60;99.90
10388;DHT22;5240;51.128;4.566;2023-07-22T13:06:14;27.00;99.90
10388;DHT22;5240;51.128;4.566;2023-07-22T13:08:41;26.60;99.90
10388;DHT22;5240;51.128;4.566;2023-07-22T13:11:08;26.30;99.90
10388;DHT22;5240;51.128;4.566;2023-07-22T13:13:36;26.10;99.90
10388;DHT22;5240;51.128;4.566;2023-07-22T13:16:03;25.90;99.90
10388;DHT22;5240;51.128;4.566;2023-07-22T13:18:30;25.50;99.90
10388;DHT22;5240;51.128;4.566;2023-07-22T13:20:57;25.40;99.90
10388;DHT22;5240;51.128;4.566;2023-07-22T13:23:24;25.00;99.90
10388;DHT22;5240;51.128;4.566;2023-07-22T13:25:51;24.50;99.90
10388;DHT22;5240;51.128;4.566;2023-07-22T13:28:18;24.20;99.90
10388;DHT22;5240;51.128;4.566;2023-07-22T13:30:47;24.00;99.90
10388;DHT22;5240;51.128;4.566;2023-07-22T13:33:14;23.60;99.90
10388;DHT22;5240;51.128;4.566;2023-07-22T13:35:40;23.20;99.90
10388;DHT22;5240;51.128;4.566;2023-07-22T13:38:07;23.00;99.90
10388;DHT22;5240;51.128;4.566;2023-07-22T13:40:34;22.90;99.90
10388;DHT22;5240;51.128;4.566;2023-07-22T13:43:02;22.90;99.90
10388;DHT22;5240;51.128;4.566;2023-07-22T13:45:29;23.10;99.90
10388;DHT22;5240;51.128;4.566;2023-07-22T13:47:57;23.20;99.90
10388;DHT22;5240;51.128;4.566;2023-07-22T13:50:24;23.40;99.90
10388;DHT22;5240;51.128;4.566;2023-07-22T13:52:51;24.00;99.90
10388;DHT22;5240;51.128;4.566;2023-07-22T13:55:18;24.20;99.90
10388;DHT22;5240;51.128;4.566;2023-07-22T13:57:45;24.20;99.90
10388;DHT22;5240;51.128;4.566;2023-07-22T14:00:13;23.80;99.90
10388;DHT22;5240;51.128;4.566;2023-07-22T14:02:41;23.70;99.90
10388;DHT22;5240;51.128;4.566;2023-07-22T14:05:09;23.50;99.90
10388;DHT22;5240;51.128;4.566;2023-07-22T14:07:36;23.40;99.90
10388;DHT22;5240;51.128;4.566;2023-07-22T14:10:04;23.30;99.90
10388;DHT22;5240;51.128;4.566;2023-07-22T14:12:32;23.10;99.90
10388;DHT22;5240;51.128;4.566;2023-07-22T14:14:59;22.80;99.90
10388;DHT22;5240;51.128;4.566;2023-07-22T14:17:26;22.60;99.90
10388;DHT22;5240;51.128;4.566;2023-07-22T14:19:53;22.60;99.90
10388;DHT22;5240;51.128;4.566;2023-07-22T14:22:21;22.50;99.90
10388;DHT22;5240;51.128;4.566;2023-07-22T14:24:48;22.50;99.90
10388;DHT22;5240;51.128;4.566;2023-07-22T14:27:15;22.40;99.90
10388;DHT22;5240;51.128;4.566;2023-07-22T14:29:42;22.30;99.90
10388;DHT22;5240;51.128;4.566;2023-07-22T14:32:09;22.10;99.90
10388;DHT22;5240;51.128;4.566;2023-07-22T14:34:36;22.00;99.90
10388;DHT22;5240;51.128;4.566;2023-07-22T14:37:04;21.90;99.90
10388;DHT22;5240;51.128;4.566;2023-07-22T14:39:32;21.90;99.90
10388;DHT22;5240;51.128;4.566;2023-07-22T14:42:00;21.80;99.90
10388;DHT22;5240;51.128;4.566;2023-07-22T14:44:27;21.70;99.90
10388;DHT22;5240;51.128;4.566;2023-07-22T14:46:54;21.60;99.90
10388;DHT22;5240;51.128;4.566;2023-07-22T14:49:21;21.50;99.90
10388;DHT22;5240;51.128;4.566;2023-07-22T14:51:48;21.40;99.90
10388;DHT22;5240;51.128;4.566;2023-07-22T14:54:15;21.40;99.90
10388;DHT22;5240;51.128;4.566;2023-07-22T14:56:43;21.30;99.90
10388;DHT22;5240;51.128;4.566;2023-07-22T14:59:13;21.20;99.90
10388;DHT22;5240;51.128;4.566;2023-07-22T15:01:41;21.20;99.90
10388;DHT22;5240;51.128;4.566;2023-07-22T15:04:08;21.40;99.90
10388;DHT22;5240;51.128;4.566;2023-07-22T15:06:35;21.50;99.90
10388;DHT22;5240;51.128;4.566;2023-07-22T15:09:03;21.80;99.90
10388;DHT22;5240;51.128;4.566;2023-07-22T15:11:32;21.70;99.90
10388;DHT22;5240;51.128;4.566;2023-07-22T15:14:00;21.70;99.90
10388;DHT22;5240;51.128;4.566;2023-07-22T15:16:27;21.60;99.90
10388;DHT22;5240;51.128;4.566;2023-07-22T15:18:54;21.70;99.90
10388;DHT22;5240;51.128;4.566;2023-07-22T15:21:21;21.80;99.90
10388;DHT22;5240;51.128;4.566;2023-07-22T15:23:48;22.00;99.90
10388;DHT22;5240;51.128;4.566;2023-07-22T15:26:15;22.00;99.90
10388;DHT22;5240;51.128;4.566;2023-07-22T15:28:42;22.10;99.90
10388;DHT22;5240;51.128;4.566;2023-07-22T15:31:11;22.10;99.90
10388;DHT22;5240;51.128;4.566;2023-07-22T15:33:38;21.90;99.90
10388;DHT22;5240;51.128;4.566;2023-07-22T15:36:05;21.90;99.90
10388;DHT22;5240;51.128;4.566;2023-07-22T15:38:32;21.90;99.90
10388;DHT22;5240;51.128;4.566;2023-07-22T15:40:59;21.90;99.90
10388;DHT22;5240;51.128;4.566;2023-07-22T15:43:26;22.00;99.90
10388;DHT22;5240;51.128;4.566;2023-07-22T15:45:53;22.10;99.90
10388;DHT22;5240;51.128;4.566;2023-07-22T15:48:21;22.20;99.90
10388;DHT22;5240;51.128;4.566;2023-07-22T15:50:48;22.10;99.90